createdAt,value
2022-10-24T00:02:12.889Z,2.17
2022-10-24T00:04:42.047Z,2.37
2022-10-24T00:07:10.131Z,2.00
2022-10-24T00:09:38.598Z,1.87
2022-10-24T00:12:07.671Z,1.87
2022-10-24T00:14:37.620Z,1.80
2022-10-24T00:17:07.313Z,1.60
2022-10-24T00:19:35.286Z,1.87
2022-10-24T00:22:03.526Z,1.23
2022-10-24T00:24:31.672Z,1.47
2022-10-24T00:26:59.560Z,2.80
2022-10-24T00:29:27.453Z,1.40
2022-10-24T00:31:56.760Z,1.47
2022-10-24T00:34:24.665Z,1.30
2022-10-24T00:36:52.571Z,1.00
2022-10-24T00:39:20.522Z,1.80
2022-10-24T00:41:48.461Z,1.70
2022-10-24T00:44:23.226Z,1.77
2022-10-24T00:46:55.319Z,1.50
2022-10-24T00:49:29.854Z,1.23
2022-10-24T00:52:03.556Z,1.70
2022-10-24T00:54:31.699Z,1.60
2022-10-24T00:57:06.029Z,1.73
2022-10-24T00:59:35.932Z,2.00
2022-10-24T01:02:04.077Z,2.90
2022-10-24T01:04:33.364Z,2.47
2022-10-24T01:07:18.512Z,2.50
2022-10-24T01:10:04.445Z,2.50
2022-10-24T01:12:41.245Z,2.00
2022-10-24T01:15:17.200Z,2.90
2022-10-24T01:17:52.163Z,1.70
2022-10-24T01:20:39.332Z,1.90
2022-10-24T01:23:34.177Z,2.33
2022-10-24T01:26:19.898Z,1.07
2022-10-24T01:28:57.119Z,1.50
2022-10-24T01:31:31.183Z,1.13
2022-10-24T01:34:06.582Z,1.10
2022-10-24T01:36:39.612Z,1.13
2022-10-24T01:39:14.464Z,1.10
2022-10-24T01:41:43.422Z,1.13
2022-10-24T01:44:17.201Z,1.00
2022-10-24T01:46:54.261Z,1.33
2022-10-24T01:49:24.351Z,1.00
2022-10-24T01:51:57.400Z,1.00
2022-10-24T01:54:25.564Z,1.20
2022-10-24T01:56:53.516Z,0.83
2022-10-24T01:59:41.728Z,1.67
2022-10-24T02:02:16.126Z,1.10
2022-10-24T02:04:49.426Z,1.43
2022-10-24T02:07:19.672Z,1.23
2022-10-24T02:09:51.372Z,1.40
2022-10-24T02:12:21.334Z,1.30
2022-10-24T02:14:55.231Z,0.97
2022-10-24T02:17:24.664Z,1.30
2022-10-24T02:19:52.788Z,1.00
2022-10-24T02:22:27.205Z,1.30
2022-10-24T02:25:01.039Z,1.10
2022-10-24T02:27:33.842Z,1.03
2022-10-24T02:30:06.508Z,0.80
2022-10-24T02:32:39.890Z,1.10
2022-10-24T02:35:09.872Z,1.27
2022-10-24T02:37:42.396Z,1.60
2022-10-24T02:40:13.540Z,1.73
2022-10-24T02:42:43.185Z,1.37
2022-10-24T02:45:13.151Z,1.20
2022-10-24T02:47:46.048Z,1.80
2022-10-24T02:50:15.046Z,1.60
2022-10-24T02:52:44.816Z,1.10
2022-10-24T02:55:13.076Z,1.10
2022-10-24T02:57:40.995Z,1.10
2022-10-24T03:00:10.301Z,1.33
2022-10-24T03:02:38.247Z,1.10
2022-10-24T03:05:08.335Z,1.43
2022-10-24T03:07:36.293Z,1.50
2022-10-24T03:10:04.769Z,1.40
2022-10-24T03:12:32.746Z,2.13
2022-10-24T03:15:00.653Z,1.57
2022-10-24T03:17:28.612Z,2.10
2022-10-24T03:19:56.521Z,1.80
2022-10-24T03:22:29.910Z,1.67
2022-10-24T03:25:01.881Z,1.47
2022-10-24T03:27:29.817Z,1.20
2022-10-24T03:29:57.723Z,1.20
2022-10-24T03:34:54.565Z,1.03
2022-10-24T03:37:22.576Z,1.10
2022-10-24T03:39:51.912Z,1.03
2022-10-24T03:42:19.811Z,1.50
2022-10-24T03:44:47.660Z,1.23
2022-10-24T03:47:15.559Z,1.37
2022-10-24T03:49:43.459Z,1.50
2022-10-24T03:52:11.362Z,1.20
2022-10-24T03:54:39.548Z,1.10
2022-10-24T03:57:09.903Z,1.40
2022-10-24T03:59:38.120Z,1.07
2022-10-24T04:02:06.438Z,1.00
2022-10-24T04:04:34.507Z,1.40
2022-10-24T04:07:02.440Z,1.10
2022-10-24T04:09:30.292Z,1.10
2022-10-24T04:11:58.204Z,1.20
2022-10-24T04:14:27.440Z,2.23
2022-10-24T04:16:55.335Z,1.67
2022-10-24T04:19:23.840Z,1.13
2022-10-24T04:21:51.771Z,1.23
2022-10-24T04:24:19.899Z,1.17
2022-10-24T04:26:47.785Z,1.40
2022-10-24T04:29:15.771Z,1.17
2022-10-24T04:31:45.134Z,1.30
2022-10-24T04:34:12.990Z,1.20
2022-10-24T04:36:40.880Z,1.73
2022-10-24T04:39:08.838Z,1.83
2022-10-24T04:41:36.777Z,1.53
2022-10-24T04:44:04.887Z,1.90
2022-10-24T04:46:33.019Z,1.77
2022-10-24T04:49:02.276Z,2.83
2022-10-24T04:51:30.173Z,1.40
2022-10-24T04:53:58.033Z,3.03
2022-10-24T04:56:26.852Z,1.53
2022-10-24T04:58:54.765Z,1.80
2022-10-24T05:01:22.676Z,1.73
2022-10-24T05:03:50.738Z,4.50
2022-10-24T05:06:19.989Z,1.80
2022-10-24T05:08:47.869Z,4.20
2022-10-24T05:11:15.921Z,4.77
2022-10-24T05:13:43.864Z,3.03
2022-10-24T05:16:12.295Z,2.83
2022-10-24T05:18:40.248Z,1.80
2022-10-24T05:21:08.118Z,1.77
2022-10-24T05:23:37.374Z,3.90
2022-10-24T05:26:05.480Z,1.90
2022-10-24T05:28:33.608Z,1.90
2022-10-24T05:31:01.879Z,3.10
2022-10-24T05:33:29.861Z,3.60
2022-10-24T05:35:57.884Z,5.67
2022-10-24T05:38:25.960Z,4.03
2022-10-24T05:40:55.688Z,5.13
2022-10-24T05:43:23.577Z,5.57
2022-10-24T05:48:24.309Z,4.40
2022-10-24T05:50:52.159Z,2.97
2022-10-24T05:53:19.993Z,4.50
2022-10-24T05:55:47.856Z,2.50
2022-10-24T05:58:20.925Z,2.77
2022-10-24T06:00:53.339Z,2.50
2022-10-24T06:03:22.204Z,1.93
2022-10-24T06:05:50.155Z,4.27
2022-10-24T06:08:18.449Z,1.97
2022-10-24T06:10:48.574Z,3.23
2022-10-24T06:13:19.055Z,1.73
2022-10-24T06:15:46.946Z,3.57
2022-10-24T06:18:14.884Z,2.00
2022-10-24T06:20:42.880Z,3.00
2022-10-24T06:23:10.766Z,2.20
2022-10-24T06:25:40.814Z,1.87
2022-10-24T06:30:42.940Z,2.33
2022-10-24T06:33:11.321Z,1.73
2022-10-24T06:35:39.243Z,2.60
2022-10-24T06:38:07.110Z,2.10
2022-10-24T06:40:37.431Z,1.70
2022-10-24T06:43:05.316Z,2.43
2022-10-24T06:45:33.223Z,2.50
2022-10-24T06:48:02.484Z,2.00
2022-10-24T06:50:30.379Z,3.37
2022-10-24T06:52:58.198Z,3.30
2022-10-24T06:55:26.061Z,2.40
2022-10-24T06:57:54.348Z,3.97
2022-10-24T07:00:22.519Z,2.10
2022-10-24T07:02:50.386Z,2.00
2022-10-24T07:05:19.950Z,1.37
2022-10-24T07:07:48.091Z,1.30
2022-10-24T07:10:16.503Z,1.97
2022-10-24T07:12:44.780Z,1.90
2022-10-24T07:15:13.189Z,1.70
2022-10-24T07:17:41.870Z,2.40
2022-10-24T07:20:11.303Z,3.13
2022-10-24T07:22:41.000Z,3.70
2022-10-24T07:25:09.956Z,4.70
2022-10-24T07:27:37.939Z,1.90
2022-10-24T07:30:06.753Z,1.70
2022-10-24T07:32:35.246Z,1.77
2022-10-24T07:35:03.185Z,1.90
2022-10-24T07:37:31.031Z,2.67
2022-10-24T07:40:00.228Z,2.07
2022-10-24T07:42:28.552Z,3.90
2022-10-24T07:44:56.726Z,2.00
2022-10-24T07:47:24.654Z,1.90
2022-10-24T07:49:52.591Z,2.37
2022-10-24T07:52:20.525Z,2.07
2022-10-24T07:54:48.380Z,2.00
2022-10-24T07:57:17.664Z,2.00
2022-10-24T07:59:45.561Z,4.27
2022-10-24T08:02:14.824Z,4.83
2022-10-24T08:04:43.058Z,2.30
2022-10-24T08:07:14.047Z,2.30
2022-10-24T08:09:43.689Z,1.90
2022-10-24T08:12:12.229Z,2.00
2022-10-24T08:14:42.290Z,2.07
2022-10-24T08:17:11.177Z,1.70
2022-10-24T08:19:43.763Z,1.90
2022-10-24T08:22:13.264Z,1.60
2022-10-24T08:24:41.236Z,1.17
2022-10-24T08:27:09.331Z,1.30
2022-10-24T08:29:37.197Z,1.27
2022-10-24T08:32:07.270Z,2.43
2022-10-24T08:34:35.312Z,1.70
2022-10-24T08:37:03.194Z,1.70
2022-10-24T08:39:31.096Z,1.10
2022-10-24T08:42:03.328Z,1.57
2022-10-24T08:44:34.427Z,1.30
2022-10-24T08:47:11.975Z,1.33
2022-10-24T08:49:46.504Z,1.50
2022-10-24T08:52:22.410Z,4.90
2022-10-24T08:54:52.450Z,2.00
2022-10-24T08:57:24.870Z,4.20
2022-10-24T08:59:55.666Z,1.50
2022-10-24T09:02:27.453Z,1.50
2022-10-24T09:04:58.203Z,1.03
2022-10-24T09:07:26.385Z,1.67
2022-10-24T09:10:04.169Z,2.23
2022-10-24T09:12:32.097Z,1.90
2022-10-24T09:15:01.201Z,1.33
2022-10-24T09:17:34.873Z,1.23
2022-10-24T09:20:17.991Z,1.53
2022-10-24T09:22:46.242Z,4.23
2022-10-24T09:25:17.960Z,2.90
2022-10-24T09:27:46.668Z,4.93
2022-10-24T09:30:18.852Z,3.30
2022-10-24T09:32:48.951Z,2.90
2022-10-24T09:35:21.305Z,4.03
2022-10-24T09:37:50.978Z,4.03
2022-10-24T09:40:22.619Z,3.03
2022-10-24T09:43:03.081Z,2.80
2022-10-24T09:45:36.083Z,3.00
2022-10-24T09:48:15.640Z,2.70
2022-10-24T09:50:44.740Z,2.90
2022-10-24T09:53:24.879Z,2.33
2022-10-24T09:55:55.698Z,2.17
2022-10-24T09:58:29.768Z,2.53
2022-10-24T10:01:00.710Z,1.93
2022-10-24T10:03:30.549Z,2.03
2022-10-24T10:06:01.546Z,5.57
2022-10-24T10:08:31.833Z,3.60
2022-10-24T10:11:07.327Z,2.17
2022-10-24T10:13:40.873Z,5.73
2022-10-24T10:16:21.412Z,4.90
2022-10-24T10:18:50.735Z,6.27
2022-10-24T10:21:21.291Z,8.23
2022-10-24T10:23:50.628Z,5.40
2022-10-24T10:26:27.320Z,7.73
2022-10-24T10:29:01.634Z,6.00
2022-10-24T10:31:43.595Z,4.50
2022-10-24T10:34:23.115Z,3.97
2022-10-24T10:37:14.340Z,4.97
2022-10-24T10:40:03.572Z,4.30
2022-10-24T10:42:40.553Z,4.80
2022-10-24T10:45:19.841Z,3.47
2022-10-24T10:47:58.188Z,4.27
2022-10-24T10:50:39.603Z,5.60
2022-10-24T10:53:22.792Z,5.23
2022-10-24T10:55:59.165Z,7.70
2022-10-24T10:58:38.548Z,3.40
2022-10-24T11:01:15.252Z,10.00
2022-10-24T11:03:48.882Z,2.40
2022-10-24T11:06:40.187Z,11.27
2022-10-24T11:09:28.488Z,6.70
2022-10-24T11:12:03.436Z,4.77
2022-10-24T11:14:34.625Z,4.70
2022-10-24T11:17:11.210Z,6.13
2022-10-24T11:19:46.495Z,2.57
2022-10-24T11:22:29.803Z,5.23
2022-10-24T11:25:03.834Z,6.60
2022-10-24T11:27:37.982Z,5.03
2022-10-24T11:30:13.213Z,3.87
2022-10-24T11:32:47.437Z,7.00
2022-10-24T11:35:25.434Z,3.73
2022-10-24T11:37:59.445Z,6.80
2022-10-24T11:40:31.193Z,5.07
2022-10-24T11:43:08.241Z,7.33
2022-10-24T11:45:43.080Z,3.63
2022-10-24T11:48:17.917Z,6.97
2022-10-24T11:50:50.674Z,9.53
2022-10-24T11:53:54.360Z,6.13
2022-10-24T11:56:31.847Z,8.97
2022-10-24T11:59:01.770Z,5.50
2022-10-24T12:01:56.404Z,4.47
2022-10-24T12:05:03.599Z,8.00
2022-10-24T12:08:11.019Z,5.83
2022-10-24T12:10:52.954Z,6.70
2022-10-24T12:13:51.249Z,5.30
2022-10-24T12:16:31.384Z,8.47
2022-10-24T12:19:02.944Z,5.30
2022-10-24T12:21:39.391Z,3.63
2022-10-24T12:24:20.238Z,3.53
2022-10-24T12:26:56.695Z,4.10
2022-10-24T12:29:27.963Z,8.67
2022-10-24T12:31:56.115Z,4.47
2022-10-24T12:34:48.825Z,5.03
2022-10-24T12:37:35.737Z,6.13
2022-10-24T12:40:37.025Z,3.40
2022-10-24T12:43:27.427Z,7.30
2022-10-24T12:46:00.103Z,6.63
2022-10-24T12:48:34.216Z,4.87
2022-10-24T12:51:05.119Z,8.00
2022-10-24T12:53:38.992Z,6.50
2022-10-24T12:56:13.376Z,5.37
2022-10-24T12:58:42.651Z,10.90
2022-10-24T13:01:25.015Z,9.43
2022-10-24T13:04:15.776Z,5.30
2022-10-24T13:07:00.364Z,7.30
2022-10-24T13:09:36.386Z,6.57
2022-10-24T13:12:17.253Z,6.53
2022-10-24T13:15:04.040Z,6.90
2022-10-24T13:17:43.690Z,5.43
2022-10-24T13:20:19.790Z,5.43
2022-10-24T13:22:50.802Z,5.40
2022-10-24T13:25:33.595Z,7.53
2022-10-24T13:28:33.388Z,6.40
2022-10-24T13:31:38.909Z,6.17
2022-10-24T13:34:21.887Z,7.80
2022-10-24T13:36:52.476Z,6.23
2022-10-24T13:39:27.659Z,7.60
2022-10-24T13:42:00.450Z,3.63
2022-10-24T13:44:33.436Z,3.93
2022-10-24T13:47:08.701Z,9.43
2022-10-24T13:49:45.724Z,7.50
2022-10-24T13:52:19.240Z,7.87
2022-10-24T13:54:54.374Z,7.87
2022-10-24T13:57:33.703Z,5.63
2022-10-24T14:00:04.879Z,3.17
2022-10-24T14:02:39.344Z,4.93
2022-10-24T14:05:18.771Z,11.40
2022-10-24T14:07:46.695Z,6.47
2022-10-24T14:10:17.085Z,8.13
2022-10-24T14:12:45.855Z,10.43
2022-10-24T14:15:19.765Z,7.93
2022-10-24T14:17:56.776Z,4.70
2022-10-24T14:20:28.961Z,11.00
2022-10-24T14:22:57.229Z,7.40
2022-10-24T14:25:28.276Z,15.70
2022-10-24T14:27:58.777Z,8.93
2022-10-24T14:30:34.522Z,9.10
2022-10-24T14:33:08.209Z,9.93
2022-10-24T14:35:37.540Z,9.37
2022-10-24T14:38:09.700Z,9.33
2022-10-24T14:40:38.149Z,5.67
2022-10-24T14:43:06.423Z,6.10
2022-10-24T14:45:34.426Z,5.90
2022-10-24T14:48:03.359Z,6.23
2022-10-24T14:50:40.660Z,2.90
2022-10-24T14:53:21.145Z,8.20
2022-10-24T14:55:51.987Z,6.50
2022-10-24T14:58:25.426Z,5.20
2022-10-24T15:00:54.939Z,7.60
2022-10-24T15:03:22.823Z,7.03
2022-10-24T15:06:09.564Z,6.60
2022-10-24T15:08:39.508Z,5.87
2022-10-24T15:11:17.081Z,8.00
2022-10-24T15:13:48.081Z,4.50
2022-10-24T15:16:29.905Z,6.10
2022-10-24T15:18:59.351Z,6.50
2022-10-24T15:21:35.791Z,9.73
2022-10-24T15:24:04.250Z,6.03
2022-10-24T15:26:36.473Z,10.93
2022-10-24T15:29:18.153Z,8.90
2022-10-24T15:31:49.085Z,6.20
2022-10-24T15:34:18.475Z,8.20
2022-10-24T15:36:49.690Z,4.27
2022-10-24T15:39:20.803Z,4.80
2022-10-24T15:41:48.774Z,11.67
2022-10-24T15:44:18.416Z,5.37
2022-10-24T15:46:46.720Z,8.10
2022-10-24T15:49:15.502Z,3.57
2022-10-24T15:51:48.987Z,6.13
2022-10-24T15:54:22.044Z,5.50
2022-10-24T15:56:50.374Z,3.90
2022-10-24T15:59:19.869Z,11.00
2022-10-24T16:01:52.188Z,4.10
2022-10-24T16:04:21.456Z,4.43
2022-10-24T16:06:49.965Z,8.70
2022-10-24T16:09:21.633Z,4.70
2022-10-24T16:11:49.934Z,6.63
2022-10-24T16:14:20.201Z,8.70
2022-10-24T16:16:48.581Z,5.07
2022-10-24T16:19:16.547Z,8.53
2022-10-24T16:21:44.863Z,4.53
2022-10-24T16:24:14.492Z,6.40
2022-10-24T16:26:43.767Z,11.47
2022-10-24T16:29:12.298Z,5.30
2022-10-24T16:31:42.131Z,6.63
2022-10-24T16:34:10.080Z,6.47
2022-10-24T16:36:40.833Z,5.27
2022-10-24T16:39:09.297Z,8.27
2022-10-24T16:41:37.188Z,3.30
2022-10-24T16:44:06.540Z,3.30
2022-10-24T16:46:34.442Z,6.73
2022-10-24T16:49:02.492Z,7.13
2022-10-24T16:51:32.333Z,5.13
2022-10-24T16:54:01.183Z,3.47
2022-10-24T16:56:29.455Z,2.90
2022-10-24T16:58:57.465Z,5.03
2022-10-24T17:01:27.933Z,6.70
2022-10-24T17:03:56.094Z,2.87
2022-10-24T17:06:24.036Z,5.10
2022-10-24T17:08:52.447Z,2.43
2022-10-24T17:11:43.738Z,3.00
2022-10-24T17:16:44.081Z,5.30
2022-10-24T17:19:16.684Z,2.80
2022-10-24T17:21:46.824Z,6.30
2022-10-24T17:24:16.590Z,4.73
2022-10-24T17:26:44.928Z,8.27
2022-10-24T17:29:16.009Z,5.90
2022-10-24T17:31:45.587Z,5.40
2022-10-24T17:34:13.660Z,10.20
2022-10-24T17:36:43.596Z,4.93
2022-10-24T17:39:15.102Z,6.30
2022-10-24T17:41:43.251Z,10.80
2022-10-24T17:44:16.989Z,4.23
2022-10-24T17:46:46.952Z,8.40
2022-10-24T17:49:20.782Z,4.43
2022-10-24T17:51:50.001Z,9.27
2022-10-24T17:54:18.627Z,4.00
2022-10-24T17:56:46.600Z,6.50
2022-10-24T17:59:15.051Z,4.93
2022-10-24T18:01:43.302Z,8.03
2022-10-24T18:04:12.601Z,5.60
2022-10-24T18:06:42.243Z,7.80
2022-10-24T18:09:11.629Z,5.80
2022-10-24T18:11:40.009Z,5.47
2022-10-24T18:14:08.161Z,6.10
2022-10-24T18:16:37.034Z,3.83
2022-10-24T18:19:05.471Z,8.90
2022-10-24T18:21:35.420Z,7.03
2022-10-24T18:24:03.339Z,4.27
2022-10-24T18:26:31.366Z,11.50
2022-10-24T18:28:59.326Z,8.47
2022-10-24T18:31:29.354Z,9.87
2022-10-24T18:34:03.525Z,7.20
2022-10-24T18:36:37.624Z,6.63
2022-10-24T18:39:06.200Z,15.13
2022-10-24T18:41:44.219Z,5.83
2022-10-24T18:44:28.100Z,14.33
2022-10-24T18:46:59.652Z,10.43
2022-10-24T18:49:38.972Z,8.77
2022-10-24T18:52:17.189Z,21.83
2022-10-24T18:54:53.359Z,13.80
2022-10-24T18:57:24.730Z,5.27
2022-10-24T18:59:53.055Z,3.97
2022-10-24T19:02:27.944Z,5.77
2022-10-24T19:05:13.438Z,10.87
2022-10-24T19:07:43.002Z,6.23
2022-10-24T19:10:17.369Z,6.97
2022-10-24T19:12:45.632Z,6.20
2022-10-24T19:15:15.319Z,4.00
2022-10-24T19:17:43.583Z,4.40
2022-10-24T19:20:16.808Z,3.10
2022-10-24T19:22:46.681Z,4.60
2022-10-24T19:25:15.600Z,3.70
2022-10-24T19:27:43.514Z,3.53
2022-10-24T19:30:12.535Z,3.10
2022-10-24T19:32:40.523Z,6.30
2022-10-24T19:35:09.019Z,3.70
2022-10-24T19:37:37.408Z,4.47
2022-10-24T19:40:08.382Z,6.97
2022-10-24T19:42:36.249Z,13.80
2022-10-24T19:45:05.217Z,8.93
2022-10-24T19:47:33.237Z,8.07
2022-10-24T19:50:01.207Z,6.57
2022-10-24T19:52:29.047Z,6.60
2022-10-24T19:54:56.921Z,4.53
2022-10-24T19:57:26.159Z,6.43
2022-10-24T19:59:53.978Z,10.90
2022-10-24T20:02:22.203Z,16.57
2022-10-24T20:04:50.027Z,12.83
2022-10-24T20:07:18.282Z,7.40
2022-10-24T20:09:46.131Z,12.53
2022-10-24T20:12:13.983Z,6.43
2022-10-24T20:14:43.255Z,7.37
2022-10-24T20:17:11.088Z,5.20
2022-10-24T20:19:38.981Z,3.93
2022-10-24T20:22:06.818Z,3.90
2022-10-24T20:24:34.783Z,6.07
2022-10-24T20:27:02.889Z,5.10
2022-10-24T20:29:30.830Z,4.27
2022-10-24T20:32:00.106Z,3.53
2022-10-24T20:34:27.958Z,4.03
2022-10-24T20:36:55.834Z,2.53
2022-10-24T20:39:23.753Z,2.97
2022-10-24T20:41:54.072Z,3.07
2022-10-24T20:44:22.415Z,4.57
2022-10-24T20:46:50.593Z,10.30
2022-10-24T20:49:19.836Z,4.57
2022-10-24T20:51:47.712Z,4.30
2022-10-24T20:54:15.582Z,4.53
2022-10-24T20:56:43.475Z,5.80
2022-10-24T20:59:13.323Z,4.33
2022-10-24T21:01:41.444Z,3.73
2022-10-24T21:04:09.539Z,3.67
2022-10-24T21:06:38.913Z,3.57
2022-10-24T21:09:08.368Z,6.13
2022-10-24T21:11:36.472Z,5.30
2022-10-24T21:14:06.231Z,4.77
2022-10-24T21:16:34.684Z,5.00
2022-10-24T21:19:02.941Z,4.43
2022-10-24T21:21:31.220Z,4.60
2022-10-24T21:24:04.501Z,7.70
2022-10-24T21:26:35.284Z,5.30
2022-10-24T21:29:09.125Z,5.30
2022-10-24T21:31:50.121Z,5.10
2022-10-24T21:34:18.305Z,6.63
2022-10-24T21:36:46.371Z,6.17
2022-10-24T21:39:16.981Z,6.67
2022-10-24T21:41:45.421Z,3.70
2022-10-24T21:44:14.374Z,7.63
2022-10-24T21:46:42.375Z,5.00
2022-10-24T21:49:10.510Z,7.03
2022-10-24T21:51:41.095Z,5.53
2022-10-24T21:54:17.952Z,6.40
2022-10-24T21:56:46.060Z,4.40
2022-10-24T21:59:15.566Z,10.03
2022-10-24T22:01:45.112Z,5.17
2022-10-24T22:04:14.633Z,9.80
2022-10-24T22:06:43.887Z,5.47
2022-10-24T22:09:14.416Z,8.40
2022-10-24T22:11:44.380Z,4.43
2022-10-24T22:14:14.860Z,4.40
2022-10-24T22:16:43.690Z,5.70
2022-10-24T22:19:13.593Z,5.10
2022-10-24T22:21:43.951Z,6.80
2022-10-24T22:24:13.496Z,10.10
2022-10-24T22:26:43.725Z,7.90
2022-10-24T22:29:14.331Z,10.70
2022-10-24T22:31:43.004Z,5.10
2022-10-24T22:34:15.472Z,7.20
2022-10-24T22:36:59.380Z,5.70
2022-10-24T22:39:28.291Z,5.40
2022-10-24T22:41:58.252Z,6.67
2022-10-24T22:44:26.753Z,5.07
2022-10-24T22:47:18.919Z,3.70
2022-10-24T22:49:55.624Z,9.80
2022-10-24T22:52:24.098Z,4.70
2022-10-24T22:54:52.380Z,4.23
2022-10-24T22:57:22.528Z,7.07
2022-10-24T22:59:51.012Z,3.70
2022-10-24T23:02:27.700Z,5.77
2022-10-24T23:05:03.729Z,3.60
2022-10-24T23:07:41.757Z,4.50
2022-10-24T23:10:13.800Z,3.10
2022-10-24T23:12:43.883Z,6.10
2022-10-24T23:15:14.743Z,4.37
2022-10-24T23:17:43.325Z,3.50
2022-10-24T23:20:22.990Z,2.70
2022-10-24T23:22:58.405Z,7.00
2022-10-24T23:25:37.603Z,2.87
2022-10-24T23:28:12.339Z,2.80
2022-10-24T23:30:40.742Z,5.57
2022-10-24T23:33:18.915Z,4.40
2022-10-24T23:35:47.280Z,2.60
2022-10-24T23:38:15.680Z,4.73
2022-10-24T23:40:44.089Z,2.97
2022-10-24T23:43:17.454Z,2.57
2022-10-24T23:45:51.585Z,15.50
2022-10-24T23:48:30.667Z,4.13
2022-10-24T23:51:05.350Z,5.13
2022-10-24T23:53:48.801Z,4.43
2022-10-24T23:56:18.572Z,3.47
2022-10-24T23:58:47.956Z,2.83
